sensor_id;sensor_type;location;lat;lon;timestamp;P1;durP1;ratioP1;P2;durP2;ratioP2
23258;SDS011;11798;51.528;7.240;2022-08-25T00:01:35;5.33;;;3.90;;
23258;SDS011;11798;51.528;7.240;2022-08-25T00:04:08;4.72;;;4.07;;
23258;SDS011;11798;51.528;7.240;2022-08-25T00:06:36;7.53;;;4.40;;
23258;SDS011;11798;51.528;7.240;2022-08-25T00:09:03;6.03;;;3.80;;
23258;SDS011;11798;51.528;7.240;2022-08-25T00:11:30;6.20;;;4.10;;
23258;SDS011;11798;51.528;7.240;2022-08-25T00:13:59;5.03;;;4.00;;
23258;SDS011;11798;51.528;7.240;2022-08-25T00:16:28;5.47;;;4.27;;
23258;SDS011;11798;51.528;7.240;2022-08-25T00:18:59;7.70;;;4.23;;
23258;SDS011;11798;51.528;7.240;2022-08-25T00:21:28;6.87;;;4.07;;
23258;SDS011;11798;51.528;7.240;2022-08-25T00:23:56;7.13;;;3.90;;
23258;SDS011;11798;51.528;7.240;2022-08-25T00:26:23;5.93;;;3.90;;
23258;SDS011;11798;51.528;7.240;2022-08-25T00:28:50;5.00;;;3.80;;
23258;SDS011;11798;51.528;7.240;2022-08-25T00:31:18;6.00;;;4.40;;
23258;SDS011;11798;51.528;7.240;2022-08-25T00:33:46;6.07;;;4.03;;
23258;SDS011;11798;51.528;7.240;2022-08-25T00:36:13;9.13;;;4.47;;
23258;SDS011;11798;51.528;7.240;2022-08-25T00:38:40;5.57;;;3.90;;
23258;SDS011;11798;51.528;7.240;2022-08-25T00:41:07;7.50;;;4.67;;
23258;SDS011;11798;51.528;7.240;2022-08-25T00:46:23;6.17;;;4.30;;
23258;SDS011;11798;51.528;7.240;2022-08-25T00:49:15;4.70;;;4.27;;
23258;SDS011;11798;51.528;7.240;2022-08-25T00:51:44;5.17;;;4.60;;
23258;SDS011;11798;51.528;7.240;2022-08-25T00:54:24;6.43;;;4.30;;
23258;SDS011;11798;51.528;7.240;2022-08-25T00:56:55;6.00;;;4.53;;
23258;SDS011;11798;51.528;7.240;2022-08-25T00:59:23;5.60;;;4.10;;
23258;SDS011;11798;51.528;7.240;2022-08-25T01:01:50;5.83;;;4.37;;
23258;SDS011;11798;51.528;7.240;2022-08-25T01:04:17;5.60;;;4.30;;
23258;SDS011;11798;51.528;7.240;2022-08-25T10:41:56;9.48;;;7.25;;
23258;SDS011;11798;51.528;7.240;2022-08-25T10:53:28;7.82;;;7.03;;
23258;SDS011;11798;51.528;7.240;2022-08-25T10:56:16;8.75;;;7.30;;
23258;SDS011;11798;51.528;7.240;2022-08-25T11:06:41;9.50;;;7.90;;
23258;SDS011;11798;51.528;7.240;2022-08-25T11:09:09;8.55;;;7.60;;
23258;SDS011;11798;51.528;7.240;2022-08-25T11:11:48;7.90;;;6.85;;
23258;SDS011;11798;51.528;7.240;2022-08-25T11:17:23;8.52;;;7.20;;
23258;SDS011;11798;51.528;7.240;2022-08-25T11:19:53;6.78;;;6.18;;
23258;SDS011;11798;51.528;7.240;2022-08-25T11:27:35;7.88;;;7.07;;
23258;SDS011;11798;51.528;7.240;2022-08-25T11:30:12;7.68;;;6.97;;
23258;SDS011;11798;51.528;7.240;2022-08-25T11:32:39;7.82;;;6.95;;
23258;SDS011;11798;51.528;7.240;2022-08-25T11:35:10;7.43;;;6.72;;
23258;SDS011;11798;51.528;7.240;2022-08-25T11:40:30;8.60;;;7.20;;
23258;SDS011;11798;51.528;7.240;2022-08-25T11:43:28;7.97;;;7.28;;
23258;SDS011;11798;51.528;7.240;2022-08-25T11:51:48;7.82;;;7.03;;
23258;SDS011;11798;51.528;7.240;2022-08-25T11:57:01;7.35;;;6.63;;
23258;SDS011;11798;51.528;7.240;2022-08-25T12:02:37;7.85;;;6.63;;
23258;SDS011;11798;51.528;7.240;2022-08-25T12:05:07;10.32;;;6.70;;
23258;SDS011;11798;51.528;7.240;2022-08-25T12:10:16;7.00;;;6.35;;
23258;SDS011;11798;51.528;7.240;2022-08-25T12:13:22;8.52;;;7.03;;
23258;SDS011;11798;51.528;7.240;2022-08-25T12:16:30;8.35;;;6.78;;
23258;SDS011;11798;51.528;7.240;2022-08-25T12:18:59;10.70;;;6.55;;
23258;SDS011;11798;51.528;7.240;2022-08-25T12:21:46;7.18;;;6.47;;
23258;SDS011;11798;51.528;7.240;2022-08-25T12:24:12;7.22;;;6.55;;
23258;SDS011;11798;51.528;7.240;2022-08-25T12:29:25;6.75;;;6.03;;
23258;SDS011;11798;51.528;7.240;2022-08-25T12:37:23;6.68;;;5.97;;
23258;SDS011;11798;51.528;7.240;2022-08-25T12:42:37;6.50;;;5.90;;
23258;SDS011;11798;51.528;7.240;2022-08-25T12:45:10;6.85;;;6.18;;
23258;SDS011;11798;51.528;7.240;2022-08-25T12:47:43;6.80;;;6.20;;
23258;SDS011;11798;51.528;7.240;2022-08-25T12:56:05;5.40;;;4.90;;
23258;SDS011;11798;51.528;7.240;2022-08-25T12:58:49;6.82;;;6.13;;
23258;SDS011;11798;51.528;7.240;2022-08-25T13:12:29;6.97;;;6.25;;
23258;SDS011;11798;51.528;7.240;2022-08-25T13:18:15;8.32;;;6.88;;
23258;SDS011;11798;51.528;7.240;2022-08-25T13:20:46;7.18;;;5.70;;
23258;SDS011;11798;51.528;7.240;2022-08-25T13:23:16;6.45;;;5.85;;
23258;SDS011;11798;51.528;7.240;2022-08-25T13:25:48;7.72;;;6.22;;
23258;SDS011;11798;51.528;7.240;2022-08-25T13:28:23;8.05;;;6.05;;
23258;SDS011;11798;51.528;7.240;2022-08-25T13:31:04;6.43;;;5.70;;
23258;SDS011;11798;51.528;7.240;2022-08-25T13:33:32;8.50;;;6.20;;
23258;SDS011;11798;51.528;7.240;2022-08-25T13:35:59;6.18;;;5.53;;
23258;SDS011;11798;51.528;7.240;2022-08-25T13:38:44;6.53;;;5.65;;
23258;SDS011;11798;51.528;7.240;2022-08-25T13:41:15;6.82;;;5.60;;
23258;SDS011;11798;51.528;7.240;2022-08-25T13:43:43;6.05;;;5.55;;
23258;SDS011;11798;51.528;7.240;2022-08-25T13:46:08;5.57;;;5.03;;
23258;SDS011;11798;51.528;7.240;2022-08-25T13:48:37;6.15;;;5.55;;
23258;SDS011;11798;51.528;7.240;2022-08-25T13:51:06;5.53;;;5.00;;
23258;SDS011;11798;51.528;7.240;2022-08-25T13:53:40;7.43;;;5.80;;
23258;SDS011;11798;51.528;7.240;2022-08-25T13:59:23;6.55;;;5.18;;
23258;SDS011;11798;51.528;7.240;2022-08-25T14:01:52;5.75;;;5.25;;
23258;SDS011;11798;51.528;7.240;2022-08-25T14:04:27;6.45;;;5.38;;
23258;SDS011;11798;51.528;7.240;2022-08-25T14:07:24;5.72;;;5.10;;
23258;SDS011;11798;51.528;7.240;2022-08-25T14:09:54;7.45;;;5.70;;
23258;SDS011;11798;51.528;7.240;2022-08-25T14:12:30;6.45;;;5.57;;
23258;SDS011;11798;51.528;7.240;2022-08-25T14:18:08;7.30;;;5.50;;
23258;SDS011;11798;51.528;7.240;2022-08-25T14:20:38;5.97;;;5.38;;
23258;SDS011;11798;51.528;7.240;2022-08-25T14:23:10;8.32;;;5.53;;
23258;SDS011;11798;51.528;7.240;2022-08-25T14:25:40;5.82;;;5.18;;
23258;SDS011;11798;51.528;7.240;2022-08-25T14:28:09;5.93;;;5.32;;
23258;SDS011;11798;51.528;7.240;2022-08-25T14:30:45;6.70;;;5.38;;
23258;SDS011;11798;51.528;7.240;2022-08-25T14:33:23;5.90;;;5.35;;
23258;SDS011;11798;51.528;7.240;2022-08-25T14:35:54;7.32;;;6.00;;
23258;SDS011;11798;51.528;7.240;2022-08-25T14:38:22;5.95;;;5.28;;
23258;SDS011;11798;51.528;7.240;2022-08-25T14:40:48;5.93;;;5.43;;
23258;SDS011;11798;51.528;7.240;2022-08-25T14:43:14;5.55;;;5.05;;
23258;SDS011;11798;51.528;7.240;2022-08-25T14:45:41;5.63;;;4.97;;
23258;SDS011;11798;51.528;7.240;2022-08-25T14:48:10;5.75;;;5.20;;
23258;SDS011;11798;51.528;7.240;2022-08-25T14:50:41;6.07;;;5.47;;
23258;SDS011;11798;51.528;7.240;2022-08-25T14:53:09;7.32;;;5.50;;
23258;SDS011;11798;51.528;7.240;2022-08-25T14:55:35;8.80;;;5.50;;
23258;SDS011;11798;51.528;7.240;2022-08-25T14:58:02;10.48;;;5.28;;
23258;SDS011;11798;51.528;7.240;2022-08-25T15:00:28;6.40;;;5.07;;
23258;SDS011;11798;51.528;7.240;2022-08-25T15:02:53;5.53;;;4.97;;
23258;SDS011;11798;51.528;7.240;2022-08-25T15:05:23;5.93;;;4.82;;
23258;SDS011;11798;51.528;7.240;2022-08-25T15:07:51;5.75;;;5.28;;
23258;SDS011;11798;51.528;7.240;2022-08-25T15:10:37;5.40;;;4.80;;
23258;SDS011;11798;51.528;7.240;2022-08-25T15:13:03;5.40;;;4.75;;
23258;SDS011;11798;51.528;7.240;2022-08-25T15:15:30;5.63;;;5.10;;
23258;SDS011;11798;51.528;7.240;2022-08-25T15:18:04;5.60;;;4.78;;
23258;SDS011;11798;51.528;7.240;2022-08-25T15:20:29;5.30;;;4.80;;
23258;SDS011;11798;51.528;7.240;2022-08-25T15:22:55;4.72;;;4.40;;
23258;SDS011;11798;51.528;7.240;2022-08-25T15:25:21;5.88;;;4.65;;
23258;SDS011;11798;51.528;7.240;2022-08-25T15:27:46;6.88;;;4.82;;
23258;SDS011;11798;51.528;7.240;2022-08-25T15:30:12;7.22;;;5.22;;
23258;SDS011;11798;51.528;7.240;2022-08-25T15:32:38;6.00;;;4.80;;
23258;SDS011;11798;51.528;7.240;2022-08-25T15:35:05;6.10;;;4.90;;
23258;SDS011;11798;51.528;7.240;2022-08-25T15:37:30;8.40;;;5.53;;
23258;SDS011;11798;51.528;7.240;2022-08-25T15:39:56;6.50;;;5.45;;
23258;SDS011;11798;51.528;7.240;2022-08-25T15:42:22;6.00;;;5.40;;
23258;SDS011;11798;51.528;7.240;2022-08-25T15:44:49;5.60;;;5.00;;
23258;SDS011;11798;51.528;7.240;2022-08-25T15:47:15;5.70;;;4.88;;
23258;SDS011;11798;51.528;7.240;2022-08-25T15:49:40;6.97;;;5.07;;
23258;SDS011;11798;51.528;7.240;2022-08-25T15:52:07;5.43;;;4.93;;
23258;SDS011;11798;51.528;7.240;2022-08-25T15:54:33;5.47;;;4.90;;
23258;SDS011;11798;51.528;7.240;2022-08-25T15:56:59;5.35;;;4.55;;
23258;SDS011;11798;51.528;7.240;2022-08-25T15:59:25;7.47;;;5.35;;
23258;SDS011;11798;51.528;7.240;2022-08-25T16:01:51;6.80;;;5.13;;
23258;SDS011;11798;51.528;7.240;2022-08-25T16:04:18;6.22;;;4.85;;
23258;SDS011;11798;51.528;7.240;2022-08-25T16:06:45;5.97;;;5.38;;
23258;SDS011;11798;51.528;7.240;2022-08-25T16:09:11;8.52;;;5.13;;
23258;SDS011;11798;51.528;7.240;2022-08-25T16:11:36;5.90;;;5.40;;
23258;SDS011;11798;51.528;7.240;2022-08-25T16:14:03;7.00;;;5.35;;
23258;SDS011;11798;51.528;7.240;2022-08-25T16:16:29;5.82;;;5.07;;
23258;SDS011;11798;51.528;7.240;2022-08-25T16:18:56;7.65;;;5.88;;
23258;SDS011;11798;51.528;7.240;2022-08-25T16:21:24;8.38;;;5.80;;
23258;SDS011;11798;51.528;7.240;2022-08-25T16:23:52;6.50;;;5.18;;
23258;SDS011;11798;51.528;7.240;2022-08-25T16:26:19;7.10;;;5.80;;
23258;SDS011;11798;51.528;7.240;2022-08-25T16:28:45;6.00;;;5.40;;
23258;SDS011;11798;51.528;7.240;2022-08-25T16:31:11;6.10;;;4.93;;
23258;SDS011;11798;51.528;7.240;2022-08-25T16:33:38;8.63;;;5.97;;
23258;SDS011;11798;51.528;7.240;2022-08-25T16:36:05;5.72;;;5.18;;
23258;SDS011;11798;51.528;7.240;2022-08-25T16:38:33;6.13;;;5.30;;
23258;SDS011;11798;51.528;7.240;2022-08-25T16:41:03;5.90;;;5.40;;
23258;SDS011;11798;51.528;7.240;2022-08-25T16:43:29;6.63;;;5.82;;
23258;SDS011;11798;51.528;7.240;2022-08-25T16:45:58;6.10;;;5.50;;
23258;SDS011;11798;51.528;7.240;2022-08-25T16:48:26;6.95;;;5.13;;
23258;SDS011;11798;51.528;7.240;2022-08-25T16:50:52;6.60;;;5.50;;
23258;SDS011;11798;51.528;7.240;2022-08-25T16:53:18;9.43;;;6.07;;
23258;SDS011;11798;51.528;7.240;2022-08-25T16:56:02;7.93;;;6.18;;
23258;SDS011;11798;51.528;7.240;2022-08-25T16:58:29;7.82;;;6.68;;
23258;SDS011;11798;51.528;7.240;2022-08-25T17:01:02;6.60;;;5.88;;
23258;SDS011;11798;51.528;7.240;2022-08-25T17:03:37;6.18;;;5.57;;
23258;SDS011;11798;51.528;7.240;2022-08-25T17:06:05;6.60;;;5.90;;
23258;SDS011;11798;51.528;7.240;2022-08-25T17:08:31;10.90;;;6.50;;
23258;SDS011;11798;51.528;7.240;2022-08-25T17:11:07;6.60;;;6.00;;
23258;SDS011;11798;51.528;7.240;2022-08-25T17:13:36;6.80;;;6.20;;
23258;SDS011;11798;51.528;7.240;2022-08-25T17:16:03;8.23;;;6.43;;
23258;SDS011;11798;51.528;7.240;2022-08-25T17:18:28;6.90;;;6.20;;
23258;SDS011;11798;51.528;7.240;2022-08-25T17:20:58;7.47;;;6.22;;
23258;SDS011;11798;51.528;7.240;2022-08-25T17:23:25;7.65;;;6.40;;
23258;SDS011;11798;51.528;7.240;2022-08-25T17:25:51;6.75;;;5.93;;
23258;SDS011;11798;51.528;7.240;2022-08-25T17:28:17;9.25;;;6.28;;
23258;SDS011;11798;51.528;7.240;2022-08-25T17:30:43;6.72;;;6.05;;
23258;SDS011;11798;51.528;7.240;2022-08-25T17:33:10;7.07;;;6.38;;
23258;SDS011;11798;51.528;7.240;2022-08-25T17:35:38;8.70;;;6.75;;
23258;SDS011;11798;51.528;7.240;2022-08-25T17:38:10;7.43;;;5.88;;
23258;SDS011;11798;51.528;7.240;2022-08-25T17:40:36;7.20;;;6.13;;
23258;SDS011;11798;51.528;7.240;2022-08-25T17:43:03;7.43;;;6.30;;
23258;SDS011;11798;51.528;7.240;2022-08-25T17:45:29;7.13;;;6.38;;
23258;SDS011;11798;51.528;7.240;2022-08-25T17:47:55;7.53;;;6.40;;
23258;SDS011;11798;51.528;7.240;2022-08-25T17:50:21;8.00;;;6.90;;
23258;SDS011;11798;51.528;7.240;2022-08-25T17:52:48;8.30;;;7.40;;
23258;SDS011;11798;51.528;7.240;2022-08-25T17:55:15;9.52;;;6.72;;
23258;SDS011;11798;51.528;7.240;2022-08-25T17:57:40;7.45;;;6.65;;
23258;SDS011;11798;51.528;7.240;2022-08-25T18:00:06;7.95;;;6.80;;
23258;SDS011;11798;51.528;7.240;2022-08-25T18:02:36;10.90;;;7.15;;
23258;SDS011;11798;51.528;7.240;2022-08-25T18:05:03;8.48;;;6.10;;
23258;SDS011;11798;51.528;7.240;2022-08-25T18:07:30;7.53;;;6.47;;
23258;SDS011;11798;51.528;7.240;2022-08-25T18:09:56;8.38;;;6.38;;
23258;SDS011;11798;51.528;7.240;2022-08-25T18:12:21;8.77;;;6.95;;
23258;SDS011;11798;51.528;7.240;2022-08-25T18:14:48;10.73;;;7.13;;
23258;SDS011;11798;51.528;7.240;2022-08-25T18:17:14;15.00;;;7.38;;
23258;SDS011;11798;51.528;7.240;2022-08-25T18:19:40;14.60;;;6.75;;
23258;SDS011;11798;51.528;7.240;2022-08-25T18:22:06;22.23;;;8.48;;
23258;SDS011;11798;51.528;7.240;2022-08-25T18:24:32;23.92;;;8.00;;
23258;SDS011;11798;51.528;7.240;2022-08-25T18:26:59;25.48;;;8.32;;
23258;SDS011;11798;51.528;7.240;2022-08-25T18:29:26;21.02;;;8.75;;
23258;SDS011;11798;51.528;7.240;2022-08-25T18:31:52;19.95;;;8.45;;
23258;SDS011;11798;51.528;7.240;2022-08-25T18:34:19;27.02;;;9.15;;
23258;SDS011;11798;51.528;7.240;2022-08-25T18:36:46;21.00;;;8.20;;
23258;SDS011;11798;51.528;7.240;2022-08-25T18:39:12;16.63;;;7.93;;
23258;SDS011;11798;51.528;7.240;2022-08-25T18:41:56;21.77;;;8.48;;
23258;SDS011;11798;51.528;7.240;2022-08-25T18:44:22;18.95;;;8.13;;
23258;SDS011;11798;51.528;7.240;2022-08-25T18:46:48;24.02;;;8.45;;
23258;SDS011;11798;51.528;7.240;2022-08-25T18:49:13;18.73;;;8.52;;
23258;SDS011;11798;51.528;7.240;2022-08-25T18:51:41;23.35;;;8.50;;
23258;SDS011;11798;51.528;7.240;2022-08-25T18:54:08;23.42;;;9.13;;
23258;SDS011;11798;51.528;7.240;2022-08-25T18:56:34;23.42;;;8.95;;
23258;SDS011;11798;51.528;7.240;2022-08-25T18:58:59;28.77;;;9.52;;
23258;SDS011;11798;51.528;7.240;2022-08-25T19:01:33;30.65;;;9.27;;
23258;SDS011;11798;51.528;7.240;2022-08-25T19:04:00;26.48;;;9.05;;
23258;SDS011;11798;51.528;7.240;2022-08-25T19:06:26;26.13;;;9.63;;
23258;SDS011;11798;51.528;7.240;2022-08-25T19:08:52;37.50;;;9.63;;
23258;SDS011;11798;51.528;7.240;2022-08-25T19:11:18;28.90;;;9.10;;
23258;SDS011;11798;51.528;7.240;2022-08-25T19:13:44;28.65;;;9.25;;
23258;SDS011;11798;51.528;7.240;2022-08-25T19:16:14;32.10;;;9.30;;
23258;SDS011;11798;51.528;7.240;2022-08-25T19:18:43;19.45;;;8.85;;
23258;SDS011;11798;51.528;7.240;2022-08-25T19:21:09;21.13;;;9.30;;
23258;SDS011;11798;51.528;7.240;2022-08-25T19:23:35;19.02;;;8.80;;
23258;SDS011;11798;51.528;7.240;2022-08-25T19:26:05;16.08;;;8.93;;
